Terminal Aerodrome Forecast
Issued by NWS

Current Version | Previous Version | Text Only | Print | Product List | Glossary On
Versions: 1 2 3 4 5 6 7 8 9 10 11 12 13 14 15 16
000
FTAK31 PAJN 261300 AAA
TAFAYA
TAF AMD
PAYA 261400Z 2614/2712 VRB04KT P6SM VCFG OVC005
     FM261600 25006KT P6SM BKN010 OVC020
     FM262000 23006KT P6SM OVC025
     FM270300 27007KT P6SM SCT015 OVC025
     FM270600 25005KT P6SM VCSH SCT010 OVC020
      AMD LTD TO CLD VIS AND WIND 2701/2710=

USA.gov is the U.S. government's official web portal to all federal, state and local government web resources and services.